sensor_id;sensor_type;location;lat;lon;timestamp;temperature;humidity
31819;DHT22;18384;48.860;9.188;2022-08-25T00:01:51;22.00;89.30
31819;DHT22;18384;48.860;9.188;2022-08-25T00:04:22;22.00;89.70
31819;DHT22;18384;48.860;9.188;2022-08-25T00:06:50;22.00;89.70
31819;DHT22;18384;48.860;9.188;2022-08-25T00:09:19;22.00;89.90
31819;DHT22;18384;48.860;9.188;2022-08-25T00:11:48;22.00;90.00
31819;DHT22;18384;48.860;9.188;2022-08-25T00:14:18;21.90;90.10
31819;DHT22;18384;48.860;9.188;2022-08-25T00:16:47;21.90;89.70
31819;DHT22;18384;48.860;9.188;2022-08-25T00:19:18;21.90;90.40
31819;DHT22;18384;48.860;9.188;2022-08-25T00:21:46;21.90;90.80
31819;DHT22;18384;48.860;9.188;2022-08-25T00:24:15;21.80;90.20
31819;DHT22;18384;48.860;9.188;2022-08-25T00:26:44;21.80;90.10
31819;DHT22;18384;48.860;9.188;2022-08-25T00:29:11;21.80;90.60
31819;DHT22;18384;48.860;9.188;2022-08-25T00:31:38;21.70;90.40
31819;DHT22;18384;48.860;9.188;2022-08-25T00:34:12;21.70;90.60
31819;DHT22;18384;48.860;9.188;2022-08-25T00:36:41;21.70;90.40
31819;DHT22;18384;48.860;9.188;2022-08-25T00:39:09;21.60;90.40
31819;DHT22;18384;48.860;9.188;2022-08-25T00:41:37;21.70;90.60
31819;DHT22;18384;48.860;9.188;2022-08-25T00:44:07;21.70;90.80
31819;DHT22;18384;48.860;9.188;2022-08-25T00:46:44;21.70;90.60
31819;DHT22;18384;48.860;9.188;2022-08-25T00:49:19;21.60;90.60
31819;DHT22;18384;48.860;9.188;2022-08-25T00:52:12;21.60;90.70
31819;DHT22;18384;48.860;9.188;2022-08-25T00:55:13;21.60;90.70
31819;DHT22;18384;48.860;9.188;2022-08-25T00:58:12;21.60;91.00
31819;DHT22;18384;48.860;9.188;2022-08-25T01:00:47;21.60;90.80
31819;DHT22;18384;48.860;9.188;2022-08-25T01:03:15;21.60;90.80
31819;DHT22;18384;48.860;9.188;2022-08-25T01:05:44;21.50;90.80
31819;DHT22;18384;48.860;9.188;2022-08-25T01:08:11;21.50;90.90
31819;DHT22;18384;48.860;9.188;2022-08-25T01:10:40;21.50;91.00
31819;DHT22;18384;48.860;9.188;2022-08-25T01:13:13;21.50;90.90
31819;DHT22;18384;48.860;9.188;2022-08-25T01:15:49;21.50;91.00
31819;DHT22;18384;48.860;9.188;2022-08-25T01:18:19;21.40;91.00
31819;DHT22;18384;48.860;9.188;2022-08-25T01:20:57;21.40;91.10
31819;DHT22;18384;48.860;9.188;2022-08-25T01:23:24;21.40;91.20
31819;DHT22;18384;48.860;9.188;2022-08-25T01:26:07;21.30;91.20
31819;DHT22;18384;48.860;9.188;2022-08-25T01:29:08;21.30;91.50
31819;DHT22;18384;48.860;9.188;2022-08-25T01:31:48;21.30;91.40
31819;DHT22;18384;48.860;9.188;2022-08-25T01:34:16;21.30;91.60
31819;DHT22;18384;48.860;9.188;2022-08-25T01:36:44;21.30;91.40
31819;DHT22;18384;48.860;9.188;2022-08-25T01:39:11;21.30;91.50
31819;DHT22;18384;48.860;9.188;2022-08-25T01:44:16;21.20;91.60
31819;DHT22;18384;48.860;9.188;2022-08-25T01:46:42;21.20;91.70
31819;DHT22;18384;48.860;9.188;2022-08-25T01:49:08;21.20;91.70
31819;DHT22;18384;48.860;9.188;2022-08-25T01:51:52;21.20;91.70
31819;DHT22;18384;48.860;9.188;2022-08-25T01:54:21;21.20;91.70
31819;DHT22;18384;48.860;9.188;2022-08-25T01:56:47;21.20;91.70
31819;DHT22;18384;48.860;9.188;2022-08-25T01:59:17;21.20;91.70
31819;DHT22;18384;48.860;9.188;2022-08-25T02:01:45;21.20;92.00
31819;DHT22;18384;48.860;9.188;2022-08-25T02:04:11;21.10;92.20
31819;DHT22;18384;48.860;9.188;2022-08-25T02:06:38;21.10;92.20
31819;DHT22;18384;48.860;9.188;2022-08-25T02:09:12;21.10;92.20
31819;DHT22;18384;48.860;9.188;2022-08-25T02:11:42;21.10;92.50
31819;DHT22;18384;48.860;9.188;2022-08-25T02:14:11;21.10;92.50
31819;DHT22;18384;48.860;9.188;2022-08-25T02:16:40;21.10;92.60
31819;DHT22;18384;48.860;9.188;2022-08-25T02:19:10;21.10;92.60
31819;DHT22;18384;48.860;9.188;2022-08-25T02:21:37;21.00;92.50
31819;DHT22;18384;48.860;9.188;2022-08-25T02:24:04;21.00;92.60
31819;DHT22;18384;48.860;9.188;2022-08-25T02:26:32;21.00;92.60
31819;DHT22;18384;48.860;9.188;2022-08-25T02:28:58;21.00;92.50
31819;DHT22;18384;48.860;9.188;2022-08-25T02:31:25;21.00;92.60
31819;DHT22;18384;48.860;9.188;2022-08-25T02:33:52;21.00;92.80
31819;DHT22;18384;48.860;9.188;2022-08-25T02:36:18;20.90;92.60
31819;DHT22;18384;48.860;9.188;2022-08-25T02:38:44;20.90;92.90
31819;DHT22;18384;48.860;9.188;2022-08-25T02:41:16;20.90;92.70
31819;DHT22;18384;48.860;9.188;2022-08-25T02:43:45;20.90;93.00
31819;DHT22;18384;48.860;9.188;2022-08-25T02:46:14;20.90;93.00
31819;DHT22;18384;48.860;9.188;2022-08-25T02:48:41;20.90;93.00
31819;DHT22;18384;48.860;9.188;2022-08-25T02:51:07;20.80;92.90
31819;DHT22;18384;48.860;9.188;2022-08-25T02:53:36;20.80;92.80
31819;DHT22;18384;48.860;9.188;2022-08-25T02:56:04;20.80;92.70
31819;DHT22;18384;48.860;9.188;2022-08-25T02:58:32;20.90;93.10
31819;DHT22;18384;48.860;9.188;2022-08-25T03:00:58;20.80;93.00
31819;DHT22;18384;48.860;9.188;2022-08-25T03:03:24;20.80;93.10
31819;DHT22;18384;48.860;9.188;2022-08-25T03:05:50;20.80;93.00
31819;DHT22;18384;48.860;9.188;2022-08-25T03:08:16;20.70;93.00
31819;DHT22;18384;48.860;9.188;2022-08-25T03:10:43;20.70;93.30
31819;DHT22;18384;48.860;9.188;2022-08-25T03:13:09;20.70;93.20
31819;DHT22;18384;48.860;9.188;2022-08-25T03:15:35;20.70;93.20
31819;DHT22;18384;48.860;9.188;2022-08-25T03:18:06;20.70;93.30
31819;DHT22;18384;48.860;9.188;2022-08-25T03:20:32;20.70;93.40
31819;DHT22;18384;48.860;9.188;2022-08-25T03:23:01;20.70;93.30
31819;DHT22;18384;48.860;9.188;2022-08-25T03:25:28;20.70;93.50
31819;DHT22;18384;48.860;9.188;2022-08-25T03:28:13;20.60;93.30
31819;DHT22;18384;48.860;9.188;2022-08-25T03:30:40;20.60;93.50
31819;DHT22;18384;48.860;9.188;2022-08-25T03:33:07;20.60;93.60
31819;DHT22;18384;48.860;9.188;2022-08-25T03:35:33;20.60;93.50
31819;DHT22;18384;48.860;9.188;2022-08-25T03:38:00;20.60;93.50
31819;DHT22;18384;48.860;9.188;2022-08-25T03:40:26;20.60;93.50
31819;DHT22;18384;48.860;9.188;2022-08-25T03:42:53;20.50;93.50
31819;DHT22;18384;48.860;9.188;2022-08-25T03:45:22;20.60;93.50
31819;DHT22;18384;48.860;9.188;2022-08-25T03:47:49;21.20;93.70
31819;DHT22;18384;48.860;9.188;2022-08-25T03:50:18;20.50;93.70
31819;DHT22;18384;48.860;9.188;2022-08-25T03:52:53;20.50;93.70
31819;DHT22;18384;48.860;9.188;2022-08-25T03:55:22;20.50;93.80
31819;DHT22;18384;48.860;9.188;2022-08-25T03:57:50;21.10;94.00
31819;DHT22;18384;48.860;9.188;2022-08-25T04:00:17;20.50;93.70
31819;DHT22;18384;48.860;9.188;2022-08-25T04:02:43;20.40;93.70
31819;DHT22;18384;48.860;9.188;2022-08-25T04:05:10;20.40;93.80
31819;DHT22;18384;48.860;9.188;2022-08-25T04:07:37;20.40;93.70
31819;DHT22;18384;48.860;9.188;2022-08-25T04:10:05;20.40;93.60
31819;DHT22;18384;48.860;9.188;2022-08-25T04:12:33;20.40;93.50
31819;DHT22;18384;48.860;9.188;2022-08-25T04:14:59;20.40;93.60
31819;DHT22;18384;48.860;9.188;2022-08-25T04:17:25;20.40;93.70
31819;DHT22;18384;48.860;9.188;2022-08-25T04:19:51;20.30;93.70
31819;DHT22;18384;48.860;9.188;2022-08-25T04:22:17;20.30;93.90
31819;DHT22;18384;48.860;9.188;2022-08-25T04:24:44;20.30;93.90
31819;DHT22;18384;48.860;9.188;2022-08-25T04:27:10;20.30;93.80
31819;DHT22;18384;48.860;9.188;2022-08-25T04:29:36;20.30;94.00
31819;DHT22;18384;48.860;9.188;2022-08-25T04:32:03;20.30;94.10
31819;DHT22;18384;48.860;9.188;2022-08-25T04:34:29;20.30;94.20
31819;DHT22;18384;48.860;9.188;2022-08-25T04:37:00;20.30;94.30
31819;DHT22;18384;48.860;9.188;2022-08-25T04:39:28;20.30;94.30
31819;DHT22;18384;48.860;9.188;2022-08-25T04:41:54;20.20;94.30
31819;DHT22;18384;48.860;9.188;2022-08-25T04:44:20;20.20;94.30
31819;DHT22;18384;48.860;9.188;2022-08-25T04:46:46;20.20;94.30
31819;DHT22;18384;48.860;9.188;2022-08-25T04:49:12;20.20;94.20
31819;DHT22;18384;48.860;9.188;2022-08-25T04:51:39;20.30;94.30
31819;DHT22;18384;48.860;9.188;2022-08-25T04:54:10;20.20;94.20
31819;DHT22;18384;48.860;9.188;2022-08-25T04:56:39;20.20;94.30
31819;DHT22;18384;48.860;9.188;2022-08-25T04:59:11;20.30;94.50
31819;DHT22;18384;48.860;9.188;2022-08-25T05:01:39;20.30;94.40
31819;DHT22;18384;48.860;9.188;2022-08-25T05:04:09;20.30;94.40
31819;DHT22;18384;48.860;9.188;2022-08-25T05:06:36;20.30;94.50
31819;DHT22;18384;48.860;9.188;2022-08-25T05:09:03;20.30;94.50
31819;DHT22;18384;48.860;9.188;2022-08-25T05:11:30;20.40;94.40
31819;DHT22;18384;48.860;9.188;2022-08-25T05:13:57;20.40;94.50
31819;DHT22;18384;48.860;9.188;2022-08-25T05:16:25;20.40;94.60
31819;DHT22;18384;48.860;9.188;2022-08-25T05:18:52;20.40;94.60
31819;DHT22;18384;48.860;9.188;2022-08-25T05:21:23;20.50;94.60
31819;DHT22;18384;48.860;9.188;2022-08-25T05:23:55;20.50;94.50
31819;DHT22;18384;48.860;9.188;2022-08-25T05:26:24;20.50;94.50
31819;DHT22;18384;48.860;9.188;2022-08-25T05:28:53;20.60;94.50
31819;DHT22;18384;48.860;9.188;2022-08-25T05:31:21;20.60;94.10
31819;DHT22;18384;48.860;9.188;2022-08-25T05:33:48;20.70;93.90
31819;DHT22;18384;48.860;9.188;2022-08-25T05:36:14;20.70;94.00
31819;DHT22;18384;48.860;9.188;2022-08-25T05:38:41;20.80;94.20
31819;DHT22;18384;48.860;9.188;2022-08-25T05:41:13;20.80;94.20
31819;DHT22;18384;48.860;9.188;2022-08-25T05:43:43;20.90;93.80
31819;DHT22;18384;48.860;9.188;2022-08-25T05:46:11;20.90;94.00
31819;DHT22;18384;48.860;9.188;2022-08-25T05:48:38;21.00;94.10
31819;DHT22;18384;48.860;9.188;2022-08-25T05:51:07;21.00;94.10
31819;DHT22;18384;48.860;9.188;2022-08-25T05:53:35;21.00;93.70
31819;DHT22;18384;48.860;9.188;2022-08-25T05:56:02;21.10;93.40
31819;DHT22;18384;48.860;9.188;2022-08-25T05:58:29;21.10;93.50
31819;DHT22;18384;48.860;9.188;2022-08-25T06:00:58;21.10;93.60
31819;DHT22;18384;48.860;9.188;2022-08-25T06:05:06;21.20;93.70
31819;DHT22;18384;48.860;9.188;2022-08-25T06:07:33;21.30;93.30
31819;DHT22;18384;48.860;9.188;2022-08-25T06:10:02;21.40;93.30
31819;DHT22;18384;48.860;9.188;2022-08-25T06:12:32;21.50;93.20
31819;DHT22;18384;48.860;9.188;2022-08-25T06:15:01;21.50;93.00
31819;DHT22;18384;48.860;9.188;2022-08-25T06:17:28;21.60;92.90
31819;DHT22;18384;48.860;9.188;2022-08-25T06:19:54;21.60;92.60
31819;DHT22;18384;48.860;9.188;2022-08-25T06:22:20;21.60;92.50
31819;DHT22;18384;48.860;9.188;2022-08-25T06:24:47;21.70;92.50
31819;DHT22;18384;48.860;9.188;2022-08-25T06:27:13;21.70;92.50
31819;DHT22;18384;48.860;9.188;2022-08-25T06:29:39;21.70;92.40
31819;DHT22;18384;48.860;9.188;2022-08-25T06:32:05;21.80;92.50
31819;DHT22;18384;48.860;9.188;2022-08-25T06:34:31;21.90;92.70
31819;DHT22;18384;48.860;9.188;2022-08-25T06:36:58;21.90;92.60
31819;DHT22;18384;48.860;9.188;2022-08-25T06:39:24;22.00;92.30
31819;DHT22;18384;48.860;9.188;2022-08-25T06:41:52;22.00;92.30
31819;DHT22;18384;48.860;9.188;2022-08-25T06:44:20;22.10;92.10
31819;DHT22;18384;48.860;9.188;2022-08-25T06:46:47;22.20;91.90
31819;DHT22;18384;48.860;9.188;2022-08-25T06:49:14;22.20;92.10
31819;DHT22;18384;48.860;9.188;2022-08-25T06:51:40;22.30;92.10
31819;DHT22;18384;48.860;9.188;2022-08-25T06:54:07;22.40;92.00
31819;DHT22;18384;48.860;9.188;2022-08-25T06:56:39;22.40;91.90
31819;DHT22;18384;48.860;9.188;2022-08-25T06:59:06;22.40;91.90
31819;DHT22;18384;48.860;9.188;2022-08-25T07:01:33;22.50;91.90
31819;DHT22;18384;48.860;9.188;2022-08-25T07:04:02;22.60;91.80
31819;DHT22;18384;48.860;9.188;2022-08-25T07:06:31;22.60;91.80
31819;DHT22;18384;48.860;9.188;2022-08-25T07:09:00;22.70;91.60
31819;DHT22;18384;48.860;9.188;2022-08-25T07:11:28;22.70;91.40
31819;DHT22;18384;48.860;9.188;2022-08-25T07:13:54;22.70;91.20
31819;DHT22;18384;48.860;9.188;2022-08-25T07:16:20;22.80;91.50
31819;DHT22;18384;48.860;9.188;2022-08-25T07:18:47;22.90;91.60
31819;DHT22;18384;48.860;9.188;2022-08-25T07:21:14;22.90;91.60
31819;DHT22;18384;48.860;9.188;2022-08-25T07:23:41;22.90;91.20
31819;DHT22;18384;48.860;9.188;2022-08-25T07:26:16;23.00;91.20
31819;DHT22;18384;48.860;9.188;2022-08-25T07:28:46;23.00;91.30
31819;DHT22;18384;48.860;9.188;2022-08-25T07:31:13;23.10;91.30
31819;DHT22;18384;48.860;9.188;2022-08-25T07:33:39;23.20;91.10
31819;DHT22;18384;48.860;9.188;2022-08-25T07:37:40;23.20;91.20
31819;DHT22;18384;48.860;9.188;2022-08-25T07:40:10;23.20;90.90
31819;DHT22;18384;48.860;9.188;2022-08-25T07:42:38;23.20;90.80
31819;DHT22;18384;48.860;9.188;2022-08-25T07:45:05;23.20;90.80
31819;DHT22;18384;48.860;9.188;2022-08-25T07:47:32;23.20;91.00
31819;DHT22;18384;48.860;9.188;2022-08-25T07:49:59;23.30;90.70
31819;DHT22;18384;48.860;9.188;2022-08-25T07:52:25;23.60;90.90
31819;DHT22;18384;48.860;9.188;2022-08-25T07:54:51;23.50;90.90
31819;DHT22;18384;48.860;9.188;2022-08-25T07:57:18;23.50;91.00
31819;DHT22;18384;48.860;9.188;2022-08-25T07:59:47;23.50;90.50
31819;DHT22;18384;48.860;9.188;2022-08-25T08:02:13;23.60;90.80
31819;DHT22;18384;48.860;9.188;2022-08-25T08:04:39;23.60;90.40
31819;DHT22;18384;48.860;9.188;2022-08-25T08:07:11;23.50;90.50
31819;DHT22;18384;48.860;9.188;2022-08-25T08:09:37;23.60;90.50
31819;DHT22;18384;48.860;9.188;2022-08-25T08:12:03;23.70;90.50
31819;DHT22;18384;48.860;9.188;2022-08-25T08:14:30;23.70;90.60
31819;DHT22;18384;48.860;9.188;2022-08-25T08:16:56;23.80;90.40
31819;DHT22;18384;48.860;9.188;2022-08-25T08:19:22;23.90;90.20
31819;DHT22;18384;48.860;9.188;2022-08-25T08:21:48;23.90;89.90
31819;DHT22;18384;48.860;9.188;2022-08-25T08:24:15;23.90;89.90
31819;DHT22;18384;48.860;9.188;2022-08-25T08:26:41;23.90;90.00
31819;DHT22;18384;48.860;9.188;2022-08-25T08:29:07;23.90;90.10
31819;DHT22;18384;48.860;9.188;2022-08-25T08:31:33;24.00;89.90
31819;DHT22;18384;48.860;9.188;2022-08-25T08:33:59;24.00;89.70
31819;DHT22;18384;48.860;9.188;2022-08-25T08:36:25;24.10;89.60
31819;DHT22;18384;48.860;9.188;2022-08-25T08:38:52;24.10;89.40
31819;DHT22;18384;48.860;9.188;2022-08-25T08:41:40;24.20;89.10
31819;DHT22;18384;48.860;9.188;2022-08-25T08:46:16;24.20;89.80
31819;DHT22;18384;48.860;9.188;2022-08-25T08:48:50;24.40;89.40
31819;DHT22;18384;48.860;9.188;2022-08-25T08:51:32;24.50;89.00
31819;DHT22;18384;48.860;9.188;2022-08-25T08:54:16;24.50;88.40
31819;DHT22;18384;48.860;9.188;2022-08-25T08:56:47;24.60;87.90
31819;DHT22;18384;48.860;9.188;2022-08-25T08:59:21;24.70;87.60
31819;DHT22;18384;48.860;9.188;2022-08-25T09:01:56;24.80;86.40
31819;DHT22;18384;48.860;9.188;2022-08-25T09:04:45;24.80;86.50
31819;DHT22;18384;48.860;9.188;2022-08-25T09:07:18;24.90;86.60
31819;DHT22;18384;48.860;9.188;2022-08-25T09:09:47;25.00;86.20
31819;DHT22;18384;48.860;9.188;2022-08-25T09:12:57;25.00;85.80
31819;DHT22;18384;48.860;9.188;2022-08-25T09:16:05;25.10;85.90
31819;DHT22;18384;48.860;9.188;2022-08-25T09:22:45;25.20;84.90
31819;DHT22;18384;48.860;9.188;2022-08-25T09:27:00;25.30;84.50
31819;DHT22;18384;48.860;9.188;2022-08-25T09:30:19;25.30;84.70
31819;DHT22;18384;48.860;9.188;2022-08-25T09:32:54;25.30;83.90
31819;DHT22;18384;48.860;9.188;2022-08-25T09:35:30;25.40;84.10
31819;DHT22;18384;48.860;9.188;2022-08-25T09:38:03;25.40;84.40
31819;DHT22;18384;48.860;9.188;2022-08-25T09:40:33;25.50;83.80
31819;DHT22;18384;48.860;9.188;2022-08-25T09:43:33;25.50;84.00
31819;DHT22;18384;48.860;9.188;2022-08-25T09:46:57;25.60;83.70
31819;DHT22;18384;48.860;9.188;2022-08-25T09:56:15;25.70;82.80
31819;DHT22;18384;48.860;9.188;2022-08-25T09:58:44;25.70;82.50
31819;DHT22;18384;48.860;9.188;2022-08-25T10:01:17;25.80;82.50
31819;DHT22;18384;48.860;9.188;2022-08-25T10:04:01;25.80;82.30
31819;DHT22;18384;48.860;9.188;2022-08-25T10:06:43;25.90;82.70
31819;DHT22;18384;48.860;9.188;2022-08-25T10:09:21;26.00;83.00
31819;DHT22;18384;48.860;9.188;2022-08-25T10:11:51;26.00;82.30
31819;DHT22;18384;48.860;9.188;2022-08-25T10:14:26;26.10;82.50
31819;DHT22;18384;48.860;9.188;2022-08-25T10:17:27;26.20;81.70
31819;DHT22;18384;48.860;9.188;2022-08-25T10:20:20;26.30;82.30
31819;DHT22;18384;48.860;9.188;2022-08-25T10:22:49;26.40;81.20
31819;DHT22;18384;48.860;9.188;2022-08-25T10:25:24;26.50;82.30
31819;DHT22;18384;48.860;9.188;2022-08-25T10:37:26;26.80;78.60
31819;DHT22;18384;48.860;9.188;2022-08-25T10:40:14;26.90;78.80
31819;DHT22;18384;48.860;9.188;2022-08-25T10:46:04;27.00;78.00
31819;DHT22;18384;48.860;9.188;2022-08-25T10:48:54;26.90;76.10
31819;DHT22;18384;48.860;9.188;2022-08-25T10:58:19;27.00;76.70
31819;DHT22;18384;48.860;9.188;2022-08-25T11:07:47;27.10;76.20
31819;DHT22;18384;48.860;9.188;2022-08-25T11:10:36;27.30;73.40
31819;DHT22;18384;48.860;9.188;2022-08-25T11:13:23;27.30;74.80
31819;DHT22;18384;48.860;9.188;2022-08-25T11:16:08;27.40;75.60
31819;DHT22;18384;48.860;9.188;2022-08-25T11:22:43;27.50;75.40
31819;DHT22;18384;48.860;9.188;2022-08-25T11:25:30;27.60;74.70
31819;DHT22;18384;48.860;9.188;2022-08-25T11:29:32;27.70;74.80
31819;DHT22;18384;48.860;9.188;2022-08-25T11:32:01;27.90;74.80
31819;DHT22;18384;48.860;9.188;2022-08-25T11:34:34;27.90;73.40
31819;DHT22;18384;48.860;9.188;2022-08-25T11:37:34;28.00;72.60
31819;DHT22;18384;48.860;9.188;2022-08-25T11:40:22;28.20;73.10
31819;DHT22;18384;48.860;9.188;2022-08-25T11:43:26;28.30;72.20
31819;DHT22;18384;48.860;9.188;2022-08-25T11:47:36;28.50;71.80
31819;DHT22;18384;48.860;9.188;2022-08-25T11:50:34;28.40;68.50
31819;DHT22;18384;48.860;9.188;2022-08-25T11:53:25;28.30;68.40
31819;DHT22;18384;48.860;9.188;2022-08-25T11:56:02;28.40;68.80
31819;DHT22;18384;48.860;9.188;2022-08-25T11:58:48;28.30;71.40
31819;DHT22;18384;48.860;9.188;2022-08-25T12:02:01;28.30;71.30
31819;DHT22;18384;48.860;9.188;2022-08-25T12:04:36;28.00;70.60
31819;DHT22;18384;48.860;9.188;2022-08-25T12:07:17;27.80;70.80
31819;DHT22;18384;48.860;9.188;2022-08-25T12:10:21;27.70;70.80
31819;DHT22;18384;48.860;9.188;2022-08-25T12:13:01;27.70;71.40
31819;DHT22;18384;48.860;9.188;2022-08-25T12:30:19;27.50;70.40
31819;DHT22;18384;48.860;9.188;2022-08-25T12:39:55;28.30;69.50
31819;DHT22;18384;48.860;9.188;2022-08-25T12:42:41;28.50;68.60
31819;DHT22;18384;48.860;9.188;2022-08-25T12:45:35;28.50;69.50
31819;DHT22;18384;48.860;9.188;2022-08-25T12:48:40;28.40;69.10
31819;DHT22;18384;48.860;9.188;2022-08-25T12:51:18;28.50;70.40
31819;DHT22;18384;48.860;9.188;2022-08-25T12:57:43;28.70;69.70
31819;DHT22;18384;48.860;9.188;2022-08-25T13:00:23;28.80;69.80
31819;DHT22;18384;48.860;9.188;2022-08-25T13:03:25;28.90;69.00
31819;DHT22;18384;48.860;9.188;2022-08-25T13:12:59;28.90;68.10
31819;DHT22;18384;48.860;9.188;2022-08-25T13:16:07;28.80;67.20
31819;DHT22;18384;48.860;9.188;2022-08-25T13:18:45;28.80;67.40
31819;DHT22;18384;48.860;9.188;2022-08-25T13:21:18;28.80;67.70
31819;DHT22;18384;48.860;9.188;2022-08-25T13:23:58;28.90;67.90
31819;DHT22;18384;48.860;9.188;2022-08-25T13:26:32;28.90;66.80
31819;DHT22;18384;48.860;9.188;2022-08-25T13:29:11;29.00;67.00
31819;DHT22;18384;48.860;9.188;2022-08-25T13:31:51;29.10;67.30
31819;DHT22;18384;48.860;9.188;2022-08-25T13:34:26;29.00;66.80
31819;DHT22;18384;48.860;9.188;2022-08-25T13:36:55;28.90;67.50
31819;DHT22;18384;48.860;9.188;2022-08-25T13:39:40;28.90;66.50
31819;DHT22;18384;48.860;9.188;2022-08-25T13:42:14;29.00;65.70
31819;DHT22;18384;48.860;9.188;2022-08-25T13:44:41;28.90;65.50
31819;DHT22;18384;48.860;9.188;2022-08-25T13:47:12;29.00;67.30
31819;DHT22;18384;48.860;9.188;2022-08-25T13:49:43;29.00;66.10
31819;DHT22;18384;48.860;9.188;2022-08-25T13:53:32;29.00;65.70
31819;DHT22;18384;48.860;9.188;2022-08-25T13:56:01;29.00;65.10
31819;DHT22;18384;48.860;9.188;2022-08-25T13:58:33;29.10;65.00
31819;DHT22;18384;48.860;9.188;2022-08-25T14:01:11;29.00;64.80
31819;DHT22;18384;48.860;9.188;2022-08-25T14:03:45;29.00;65.30
31819;DHT22;18384;48.860;9.188;2022-08-25T14:06:27;29.00;65.60
31819;DHT22;18384;48.860;9.188;2022-08-25T14:09:06;29.10;65.60
31819;DHT22;18384;48.860;9.188;2022-08-25T14:11:47;29.10;65.30
31819;DHT22;18384;48.860;9.188;2022-08-25T14:14:32;29.20;66.40
31819;DHT22;18384;48.860;9.188;2022-08-25T14:17:05;29.30;65.70
31819;DHT22;18384;48.860;9.188;2022-08-25T14:19:34;29.30;65.00
31819;DHT22;18384;48.860;9.188;2022-08-25T14:22:01;29.30;64.90
31819;DHT22;18384;48.860;9.188;2022-08-25T14:24:33;29.20;65.00
31819;DHT22;18384;48.860;9.188;2022-08-25T14:27:00;29.30;65.60
31819;DHT22;18384;48.860;9.188;2022-08-25T14:29:27;29.20;64.50
31819;DHT22;18384;48.860;9.188;2022-08-25T14:31:54;29.30;65.40
31819;DHT22;18384;48.860;9.188;2022-08-25T14:34:29;29.40;65.20
31819;DHT22;18384;48.860;9.188;2022-08-25T14:36:58;29.50;65.10
31819;DHT22;18384;48.860;9.188;2022-08-25T14:39:27;29.50;64.60
31819;DHT22;18384;48.860;9.188;2022-08-25T14:41:53;29.50;64.80
31819;DHT22;18384;48.860;9.188;2022-08-25T14:44:20;29.30;65.10
31819;DHT22;18384;48.860;9.188;2022-08-25T14:46:52;29.40;65.50
31819;DHT22;18384;48.860;9.188;2022-08-25T14:49:23;29.40;65.30
31819;DHT22;18384;48.860;9.188;2022-08-25T14:51:56;29.40;65.30
31819;DHT22;18384;48.860;9.188;2022-08-25T14:54:25;29.50;65.20
31819;DHT22;18384;48.860;9.188;2022-08-25T14:56:51;29.30;64.90
31819;DHT22;18384;48.860;9.188;2022-08-25T14:59:17;29.40;64.40
31819;DHT22;18384;48.860;9.188;2022-08-25T15:01:44;29.30;64.90
31819;DHT22;18384;48.860;9.188;2022-08-25T15:04:19;29.10;64.60
31819;DHT22;18384;48.860;9.188;2022-08-25T15:06:53;29.10;64.90
31819;DHT22;18384;48.860;9.188;2022-08-25T15:09:21;29.10;65.00
31819;DHT22;18384;48.860;9.188;2022-08-25T15:11:53;29.10;64.70
31819;DHT22;18384;48.860;9.188;2022-08-25T15:14:22;29.20;64.70
31819;DHT22;18384;48.860;9.188;2022-08-25T15:16:53;29.20;63.30
31819;DHT22;18384;48.860;9.188;2022-08-25T15:19:24;29.20;64.40
31819;DHT22;18384;48.860;9.188;2022-08-25T15:21:51;29.10;64.80
31819;DHT22;18384;48.860;9.188;2022-08-25T15:24:19;29.00;64.50
31819;DHT22;18384;48.860;9.188;2022-08-25T15:26:54;29.00;64.60
31819;DHT22;18384;48.860;9.188;2022-08-25T15:29:22;28.90;64.20
31819;DHT22;18384;48.860;9.188;2022-08-25T15:31:51;28.80;64.80
31819;DHT22;18384;48.860;9.188;2022-08-25T15:34:17;28.80;64.50
31819;DHT22;18384;48.860;9.188;2022-08-25T15:36:46;28.70;64.50
31819;DHT22;18384;48.860;9.188;2022-08-25T15:39:14;28.70;64.70
31819;DHT22;18384;48.860;9.188;2022-08-25T15:41:41;28.70;65.20
31819;DHT22;18384;48.860;9.188;2022-08-25T15:44:07;30.20;66.60
31819;DHT22;18384;48.860;9.188;2022-08-25T15:46:36;28.60;65.50
31819;DHT22;18384;48.860;9.188;2022-08-25T15:49:04;28.60;65.40
31819;DHT22;18384;48.860;9.188;2022-08-25T15:51:30;28.50;65.60
31819;DHT22;18384;48.860;9.188;2022-08-25T15:53:57;28.40;65.40
31819;DHT22;18384;48.860;9.188;2022-08-25T15:56:24;28.40;65.20
31819;DHT22;18384;48.860;9.188;2022-08-25T15:58:51;28.40;64.90
31819;DHT22;18384;48.860;9.188;2022-08-25T16:01:20;28.40;64.30
31819;DHT22;18384;48.860;9.188;2022-08-25T16:03:48;28.40;64.60
31819;DHT22;18384;48.860;9.188;2022-08-25T16:06:15;28.40;64.70
31819;DHT22;18384;48.860;9.188;2022-08-25T16:08:41;28.40;64.60
31819;DHT22;18384;48.860;9.188;2022-08-25T16:11:17;28.30;66.00
31819;DHT22;18384;48.860;9.188;2022-08-25T16:13:48;28.20;64.90
31819;DHT22;18384;48.860;9.188;2022-08-25T16:16:16;28.20;65.10
31819;DHT22;18384;48.860;9.188;2022-08-25T16:18:43;28.20;65.10
31819;DHT22;18384;48.860;9.188;2022-08-25T16:21:15;28.30;65.20
31819;DHT22;18384;48.860;9.188;2022-08-25T16:23:44;28.30;65.80
31819;DHT22;18384;48.860;9.188;2022-08-25T16:26:11;28.30;65.90
31819;DHT22;18384;48.860;9.188;2022-08-25T16:28:39;28.30;65.90
31819;DHT22;18384;48.860;9.188;2022-08-25T16:31:09;28.30;65.70
31819;DHT22;18384;48.860;9.188;2022-08-25T16:33:39;28.20;65.40
31819;DHT22;18384;48.860;9.188;2022-08-25T16:36:15;28.20;65.10
31819;DHT22;18384;48.860;9.188;2022-08-25T16:38:43;28.20;65.20
31819;DHT22;18384;48.860;9.188;2022-08-25T16:41:12;28.20;65.50
31819;DHT22;18384;48.860;9.188;2022-08-25T16:43:42;28.20;65.40
31819;DHT22;18384;48.860;9.188;2022-08-25T16:46:12;28.10;65.30
31819;DHT22;18384;48.860;9.188;2022-08-25T16:48:41;28.10;65.30
31819;DHT22;18384;48.860;9.188;2022-08-25T16:51:12;28.00;66.10
31819;DHT22;18384;48.860;9.188;2022-08-25T16:53:40;28.00;66.00
31819;DHT22;18384;48.860;9.188;2022-08-25T16:56:25;28.00;66.30
31819;DHT22;18384;48.860;9.188;2022-08-25T16:58:54;27.90;66.60
31819;DHT22;18384;48.860;9.188;2022-08-25T17:01:23;27.90;66.50
31819;DHT22;18384;48.860;9.188;2022-08-25T17:03:50;27.70;66.40
31819;DHT22;18384;48.860;9.188;2022-08-25T17:06:18;27.70;66.50
31819;DHT22;18384;48.860;9.188;2022-08-25T17:08:45;27.70;66.20
31819;DHT22;18384;48.860;9.188;2022-08-25T17:11:17;27.70;66.50
31819;DHT22;18384;48.860;9.188;2022-08-25T17:13:47;27.60;66.60
31819;DHT22;18384;48.860;9.188;2022-08-25T17:16:14;27.60;66.70
31819;DHT22;18384;48.860;9.188;2022-08-25T17:18:42;27.70;67.00
31819;DHT22;18384;48.860;9.188;2022-08-25T17:21:11;27.50;67.10
31819;DHT22;18384;48.860;9.188;2022-08-25T17:23:40;27.40;66.90
31819;DHT22;18384;48.860;9.188;2022-08-25T17:26:11;27.30;66.80
31819;DHT22;18384;48.860;9.188;2022-08-25T17:28:39;27.30;67.20